Time;durP1;ratioP1;P1;durP2;ratioP2;P2;SDS_P1;SDS_P2;PMS_P1;PMS_P2;Temp;Humidity;BMP_temperature;BMP_pressure;BME280_temperature;BME280_humidity;BME280_pressure;Samples;Min_cycle;Max_cycle;Signal;HPM_P1;HPM_P2
2021/01/04 00:00:10;;;;;;;2.13;1.98;;;;;;;;;;5094061;28;20228;-65
2021/01/04 00:02:42;;;;;;;2.15;2.00;;;;;;;;;;5094259;28;20170;-66
2021/01/04 00:05:14;;;;;;;1.85;1.42;;;;;;;;;;5093006;28;20213;-65
2021/01/04 00:07:55;;;;;;;2.78;2.67;;;;;;;;;;5094136;28;20693;-65
2021/01/04 00:10:24;;;;;;;3.38;3.17;;;;;;;;;;5093883;28;20210;-65
2021/01/04 00:12:50;;;;;;;4.80;3.22;;;;;;;;;;5094215;28;20198;-65
2021/01/04 00:15:20;;;;;;;6.53;6.10;;;;;;;;;;5094254;28;20163;-66
2021/01/04 00:17:55;;;;;;;2.60;2.50;;;;;;;;;;5094072;28;20443;-65
2021/01/04 00:20:29;;;;;;;7.10;4.00;;;;;;;;;;5092273;28;20213;-66
2021/01/04 00:23:01;;;;;;;4.93;4.10;;;;;;;;;;5094030;28;20174;-66
2021/01/04 00:25:30;;;;;;;3.75;3.55;;;;;;;;;;5094095;28;20526;-65
2021/01/04 00:28:06;;;;;;;3.05;2.90;;;;;;;;;;5093618;28;20241;-66
2021/01/04 00:30:32;;;;;;;2.10;2.08;;;;;;;;;;5093541;28;20560;-62
2021/01/04 00:33:02;;;;;;;3.33;2.50;;;;;;;;;;5093900;28;20182;-66
2021/01/04 00:35:28;;;;;;;2.90;2.80;;;;;;;;;;5093684;28;20802;-65
2021/01/04 00:38:04;;;;;;;3.30;2.97;;;;;;;;;;5093622;28;20265;-65
2021/01/04 00:40:36;;;;;;;7.07;4.47;;;;;;;;;;5093326;28;20200;-65
2021/01/04 00:43:03;;;;;;;4.22;3.92;;;;;;;;;;5093368;28;20170;-64
2021/01/04 00:45:37;;;;;;;4.68;4.43;;;;;;;;;;5093508;28;20202;-65
2021/01/04 00:48:09;;;;;;;2.35;2.25;;;;;;;;;;5093414;28;20189;-65
2021/01/04 00:50:50;;;;;;;3.65;3.55;;;;;;;;;;5093132;28;20705;-65
2021/01/04 00:53:24;;;;;;;2.75;2.55;;;;;;;;;;5093438;28;20167;-65
2021/01/04 00:56:19;;;;;;;5.65;5.10;;;;;;;;;;5093308;28;20257;-65
2021/01/04 00:58:48;;;;;;;2.10;2.05;;;;;;;;;;5083980;28;20273;-65
2021/01/04 01:01:14;;;;;;;2.35;2.15;;;;;;;;;;5093203;28;20574;-66
2021/01/04 01:03:43;;;;;;;3.33;3.13;;;;;;;;;;5093064;28;20668;-66
2021/01/04 01:06:22;;;;;;;3.80;3.45;;;;;;;;;;5093088;28;20202;-65
2021/01/04 01:08:53;;;;;;;2.45;2.35;;;;;;;;;;5092874;28;20247;-65
2021/01/04 01:11:21;;;;;;;5.43;5.03;;;;;;;;;;5093010;28;20274;-65
2021/01/04 01:14:13;;;;;;;3.03;2.92;;;;;;;;;;5092976;28;20395;-65
2021/01/04 01:16:39;;;;;;;3.28;3.10;;;;;;;;;;5093111;28;20523;-65
2021/01/04 01:19:20;;;;;;;5.32;4.93;;;;;;;;;;5092781;28;20179;-65
2021/01/04 01:21:47;;;;;;;2.45;2.35;;;;;;;;;;5113254;22;20234;-65
2021/01/04 01:24:14;;;;;;;3.42;2.83;;;;;;;;;;5092566;28;20171;-67
2021/01/04 01:26:58;;;;;;;3.45;3.20;;;;;;;;;;5091399;28;20170;-67
2021/01/04 01:29:40;;;;;;;4.72;4.28;;;;;;;;;;5092552;28;20614;-67
2021/01/04 01:32:23;;;;;;;2.03;1.92;;;;;;;;;;5092405;28;20195;-67
2021/01/04 01:34:55;;;;;;;8.25;5.40;;;;;;;;;;5092592;28;20256;-67
2021/01/04 01:37:21;;;;;;;3.38;3.15;;;;;;;;;;5092603;28;20198;-64
2021/01/04 01:40:12;;;;;;;9.40;4.10;;;;;;;;;;5090325;28;20545;-65
2021/01/04 01:42:57;;;;;;;2.55;2.35;;;;;;;;;;5092730;28;20409;-66
2021/01/04 01:45:25;;;;;;;4.78;4.32;;;;;;;;;;5092479;28;20166;-64
2021/01/04 01:47:58;;;;;;;3.15;2.95;;;;;;;;;;5092152;28;20599;-67
2021/01/04 01:50:42;;;;;;;3.55;3.33;;;;;;;;;;5092137;28;20198;-67
2021/01/04 01:53:08;;;;;;;2.97;2.65;;;;;;;;;;5092229;28;20250;-67
2021/01/04 01:55:39;;;;;;;5.17;4.67;;;;;;;;;;5092176;28;20158;-67
2021/01/04 01:58:13;;;;;;;3.55;3.35;;;;;;;;;;5092327;28;20757;-66
2021/01/04 02:00:44;;;;;;;3.08;2.88;;;;;;;;;;5091932;28;20191;-67
2021/01/04 02:03:13;;;;;;;3.60;3.42;;;;;;;;;;5092039;28;20206;-65
2021/01/04 02:05:54;;;;;;;4.80;3.53;;;;;;;;;;5091873;28;20258;-66
2021/01/04 02:08:26;;;;;;;2.25;2.03;;;;;;;;;;5092126;28;20581;-66
2021/01/04 02:10:58;;;;;;;4.32;4.13;;;;;;;;;;5091768;28;20281;-67
2021/01/04 02:13:27;;;;;;;4.25;4.05;;;;;;;;;;5091916;28;20209;-65
2021/01/04 02:16:01;;;;;;;3.22;3.03;;;;;;;;;;5090436;28;20217;-68
2021/01/04 02:18:27;;;;;;;2.10;1.98;;;;;;;;;;5091785;28;20220;-66
2021/01/04 02:21:12;;;;;;;3.43;3.23;;;;;;;;;;5091396;28;20236;-67
2021/01/04 02:23:47;;;;;;;3.58;3.28;;;;;;;;;;5091727;28;20460;-66
2021/01/04 02:26:16;;;;;;;1.67;1.63;;;;;;;;;;5091875;28;20231;-67
2021/01/04 02:28:49;;;;;;;4.20;4.00;;;;;;;;;;5091444;28;20229;-65
2021/01/04 02:31:15;;;;;;;4.05;3.70;;;;;;;;;;5091241;28;20221;-65
2021/01/04 02:33:41;;;;;;;4.75;4.45;;;;;;;;;;5091546;28;20198;-66
2021/01/04 02:36:07;;;;;;;2.67;2.58;;;;;;;;;;5091477;28;20613;-66
2021/01/04 02:38:35;;;;;;;3.78;3.47;;;;;;;;;;5091576;28;20206;-66
2021/01/04 02:41:01;;;;;;;4.25;4.05;;;;;;;;;;5091294;28;20217;-65
2021/01/04 02:43:27;;;;;;;2.28;2.17;;;;;;;;;;5091637;28;20900;-65
2021/01/04 02:45:54;;;;;;;5.47;5.03;;;;;;;;;;5091496;28;20202;-65
2021/01/04 02:48:28;;;;;;;1.98;1.98;;;;;;;;;;5090199;28;20528;-63
2021/01/04 02:51:06;;;;;;;4.45;4.07;;;;;;;;;;5094375;28;20228;-65
2021/01/04 02:53:41;;;;;;;2.22;2.13;;;;;;;;;;5095751;28;20163;-66
2021/01/04 02:56:23;;;;;;;2.60;2.40;;;;;;;;;;5095579;28;20169;-66
2021/01/04 02:58:49;;;;;;;4.47;4.15;;;;;;;;;;5093973;28;20213;-66
2021/01/04 03:01:18;;;;;;;4.87;4.60;;;;;;;;;;5095251;28;20190;-66
2021/01/04 03:03:45;;;;;;;6.43;4.90;;;;;;;;;;5095520;28;20408;-65
2021/01/04 03:06:14;;;;;;;1.70;1.65;;;;;;;;;;5095219;28;20170;-66
2021/01/04 03:08:41;;;;;;;3.10;1.92;;;;;;;;;;5095095;28;20198;-66
2021/01/04 03:11:08;;;;;;;3.05;2.38;;;;;;;;;;5095108;28;20194;-67
2021/01/04 03:13:53;;;;;;;2.25;2.15;;;;;;;;;;5095246;28;20198;-65
2021/01/04 03:16:26;;;;;;;4.78;4.45;;;;;;;;;;5095240;28;20551;-67
2021/01/04 03:18:56;;;;;;;4.45;3.85;;;;;;;;;;5095062;28;20178;-66
2021/01/04 03:21:26;;;;;;;4.60;2.83;;;;;;;;;;5094808;28;20244;-65
2021/01/04 03:23:52;;;;;;;4.03;3.92;;;;;;;;;;5094994;28;20202;-66
2021/01/04 03:26:26;;;;;;;3.58;3.28;;;;;;;;;;5094878;28;20198;-65
2021/01/04 03:28:52;;;;;;;1.02;1.02;;;;;;;;;;5094648;28;20572;-64
2021/01/04 03:31:18;;;;;;;4.32;2.72;;;;;;;;;;5094850;28;20228;-65
2021/01/04 03:33:44;;;;;;;2.88;2.75;;;;;;;;;;5094717;28;20657;-65
2021/01/04 03:36:10;;;;;;;2.08;1.98;;;;;;;;;;5094741;28;20171;-64
2021/01/04 03:38:36;;;;;;;4.25;4.05;;;;;;;;;;5094650;28;20185;-66
2021/01/04 03:41:03;;;;;;;2.25;2.15;;;;;;;;;;5094193;28;20195;-65
2021/01/04 03:43:29;;;;;;;2.83;2.72;;;;;;;;;;5094578;28;20228;-64
2021/01/04 03:45:56;;;;;;;2.28;2.17;;;;;;;;;;5094541;28;20171;-67
2021/01/04 03:48:22;;;;;;;5.22;4.78;;;;;;;;;;5094419;28;20246;-65
2021/01/04 03:50:48;;;;;;;4.15;3.70;;;;;;;;;;5093613;28;20190;-65
2021/01/04 03:53:14;;;;;;;3.92;3.63;;;;;;;;;;5094240;28;20173;-65
2021/01/04 03:55:41;;;;;;;4.05;3.67;;;;;;;;;;5094196;28;20228;-65
2021/01/04 03:58:07;;;;;;;3.63;3.35;;;;;;;;;;5094321;28;20182;-65
2021/01/04 04:00:33;;;;;;;3.17;2.60;;;;;;;;;;5094046;28;20190;-66
2021/01/04 04:02:59;;;;;;;2.53;2.30;;;;;;;;;;5093465;28;20557;-65
2021/01/04 04:05:25;;;;;;;3.15;2.95;;;;;;;;;;5094444;28;20436;-65
2021/01/04 04:07:51;;;;;;;1.80;1.70;;;;;;;;;;5094109;28;20194;-65
2021/01/04 04:10:18;;;;;;;2.80;2.60;;;;;;;;;;5093855;28;20242;-65
2021/01/04 04:12:44;;;;;;;2.97;2.88;;;;;;;;;;5093873;28;20695;-66
2021/01/04 04:15:11;;;;;;;4.55;2.58;;;;;;;;;;5093916;28;20167;-66
2021/01/04 04:17:37;;;;;;;2.53;2.42;;;;;;;;;;5093845;28;20170;-65
2021/01/04 04:20:05;;;;;;;3.30;3.10;;;;;;;;;;5093485;28;20522;-66
2021/01/04 04:22:31;;;;;;;6.28;5.88;;;;;;;;;;5093938;28;20265;-65
2021/01/04 04:24:57;;;;;;;4.47;4.30;;;;;;;;;;5093910;28;20605;-66
2021/01/04 04:27:23;;;;;;;3.77;3.57;;;;;;;;;;5092714;28;20420;-63
2021/01/04 04:29:49;;;;;;;2.15;1.40;;;;;;;;;;5093514;28;20423;-65
2021/01/04 04:32:17;;;;;;;2.65;2.55;;;;;;;;;;5101195;28;20190;-67
2021/01/04 04:34:43;;;;;;;2.60;2.50;;;;;;;;;;5107112;28;20177;-66
2021/01/04 04:37:09;;;;;;;4.30;2.50;;;;;;;;;;5105000;28;20204;-65
2021/01/04 04:39:35;;;;;;;2.78;2.58;;;;;;;;;;5101324;28;20416;-66
2021/01/04 04:42:04;;;;;;;2.15;1.80;;;;;;;;;;5096458;28;20194;-64
2021/01/04 04:44:51;;;;;;;8.32;4.40;;;;;;;;;;5094324;28;20216;-65
2021/01/04 04:47:36;;;;;;;1.95;1.95;;;;;;;;;;5093626;28;20319;-65
2021/01/04 04:50:25;;;;;;;3.22;3.05;;;;;;;;;;5093127;28;20166;-66
2021/01/04 04:52:57;;;;;;;3.90;3.55;;;;;;;;;;5093391;28;20197;-65
2021/01/04 04:55:41;;;;;;;1.60;1.60;;;;;;;;;;5093209;28;20205;-65
2021/01/04 04:58:07;;;;;;;3.58;2.65;;;;;;;;;;5093060;28;20174;-66
2021/01/04 05:00:38;;;;;;;2.27;2.17;;;;;;;;;;5093021;28;20201;-66
2021/01/04 05:03:04;;;;;;;5.05;4.63;;;;;;;;;;5093215;28;20429;-67
2021/01/04 05:05:50;;;;;;;3.50;3.30;;;;;;;;;;5093042;28;20567;-68
2021/01/04 05:08:26;;;;;;;5.90;3.42;;;;;;;;;;5092862;28;20959;-66
2021/01/04 05:10:53;;;;;;;3.25;2.95;;;;;;;;;;5092978;28;20206;-67
2021/01/04 05:13:25;;;;;;;4.72;4.22;;;;;;;;;;5092015;28;20166;-64
2021/01/04 05:15:55;;;;;;;2.47;2.38;;;;;;;;;;5093066;28;20172;-65
2021/01/04 05:18:40;;;;;;;3.35;3.15;;;;;;;;;;5093063;28;20170;-67
2021/01/04 05:21:25;;;;;;;2.60;2.50;;;;;;;;;;5092715;28;20206;-67
2021/01/04 05:23:53;;;;;;;3.13;2.92;;;;;;;;;;5092766;28;20174;-67
2021/01/04 05:26:34;;;;;;;4.18;3.97;;;;;;;;;;5092677;28;20192;-67
2021/01/04 05:29:19;;;;;;;3.30;3.10;;;;;;;;;;5092417;28;20688;-67
2021/01/04 05:32:02;;;;;;;4.18;3.88;;;;;;;;;;5085502;28;20700;-66
2021/01/04 05:34:37;;;;;;;4.05;3.10;;;;;;;;;;5092712;28;20180;-66
2021/01/04 05:37:12;;;;;;;4.38;3.97;;;;;;;;;;5085810;28;20202;-65
2021/01/04 05:40:08;;;;;;;3.50;3.40;;;;;;;;;;5073123;28;20179;-65
2021/01/04 05:42:57;;;;;;;5.40;5.10;;;;;;;;;;5062885;28;20199;-65
2021/01/04 05:45:34;;;;;;;4.50;4.15;;;;;;;;;;5070016;28;20323;-65
2021/01/04 05:48:03;;;;;;;3.80;3.33;;;;;;;;;;5071896;28;20198;-66
2021/01/04 05:50:42;;;;;;;3.30;3.08;;;;;;;;;;5086527;28;20286;-66
2021/01/04 05:53:08;;;;;;;3.72;2.63;;;;;;;;;;5092893;28;20174;-66
2021/01/04 05:55:34;;;;;;;3.42;3.28;;;;;;;;;;5092127;28;20250;-65
2021/01/04 05:58:12;;;;;;;6.65;5.93;;;;;;;;;;5091735;28;20243;-66
2021/01/04 06:00:38;;;;;;;8.35;5.70;;;;;;;;;;5091863;28;20190;-66
2021/01/04 06:03:12;;;;;;;3.08;2.97;;;;;;;;;;5092002;28;20175;-65
2021/01/04 06:05:38;;;;;;;6.85;4.00;;;;;;;;;;5092506;28;20177;-65
2021/01/04 06:08:05;;;;;;;3.08;2.97;;;;;;;;;;5091865;28;20581;-65
2021/01/04 06:10:35;;;;;;;3.47;3.25;;;;;;;;;;5091647;28;20269;-64
2021/01/04 06:13:02;;;;;;;5.22;4.75;;;;;;;;;;5091969;28;20173;-65
2021/01/04 06:15:36;;;;;;;4.95;4.57;;;;;;;;;;5081955;28;20171;-66
2021/01/04 06:18:12;;;;;;;3.03;2.78;;;;;;;;;;5071753;28;20515;-66
2021/01/04 06:20:41;;;;;;;6.85;4.65;;;;;;;;;;5075878;28;20209;-65
2021/01/04 06:23:31;;;;;;;3.10;2.85;;;;;;;;;;5091719;28;20240;-65
2021/01/04 06:26:02;;;;;;;2.85;2.75;;;;;;;;;;5080278;28;20194;-66
2021/01/04 06:28:28;;;;;;;2.38;2.28;;;;;;;;;;5089942;28;20212;-66
2021/01/04 06:31:14;;;;;;;2.00;1.90;;;;;;;;;;5078215;28;20733;-66
2021/01/04 06:33:40;;;;;;;3.35;3.15;;;;;;;;;;5082531;28;20533;-66
2021/01/04 06:36:15;;;;;;;3.85;3.65;;;;;;;;;;5072953;28;20253;-65
2021/01/04 06:38:42;;;;;;;3.65;3.03;;;;;;;;;;5089871;28;20181;-65
2021/01/04 06:41:14;;;;;;;2.97;2.78;;;;;;;;;;5071288;28;20203;-66
2021/01/04 06:43:40;;;;;;;5.65;5.05;;;;;;;;;;5081679;28;20186;-65
2021/01/04 06:46:26;;;;;;;3.10;3.00;;;;;;;;;;5091667;28;20553;-66
2021/01/04 06:49:01;;;;;;;4.45;4.25;;;;;;;;;;5081207;28;20214;-66
2021/01/04 06:51:45;;;;;;;3.67;3.47;;;;;;;;;;5072637;28;20193;-65
2021/01/04 06:54:14;;;;;;;3.42;3.20;;;;;;;;;;5087874;28;20178;-64
2021/01/04 06:56:40;;;;;;;2.55;2.35;;;;;;;;;;5090853;28;20166;-65
2021/01/04 06:59:25;;;;;;;3.20;3.00;;;;;;;;;;5075988;28;20189;-64
2021/01/04 07:02:10;;;;;;;4.20;3.55;;;;;;;;;;5085195;28;20436;-65
2021/01/04 07:04:48;;;;;;;3.20;3.10;;;;;;;;;;5089217;28;20271;-66
2021/01/04 07:07:33;;;;;;;2.92;2.38;;;;;;;;;;5082651;28;20622;-65
2021/01/04 07:10:04;;;;;;;3.08;2.95;;;;;;;;;;5088064;28;20188;-66
2021/01/04 07:12:30;;;;;;;3.25;3.00;;;;;;;;;;5074316;28;20218;-65
2021/01/04 07:15:06;;;;;;;2.10;2.00;;;;;;;;;;5072577;28;20179;-64
2021/01/04 07:17:35;;;;;;;5.25;4.30;;;;;;;;;;5098925;28;20177;-66
2021/01/04 07:22:36;;;;;;;3.72;3.50;;;;;;;;;;5081829;22;20239;-64
2021/01/04 07:25:12;;;;;;;3.87;3.67;;;;;;;;;;5068994;28;20167;-64
2021/01/04 07:27:46;;;;;;;2.00;1.90;;;;;;;;;;5069214;28;21004;-64
2021/01/04 07:30:31;;;;;;;7.07;6.32;;;;;;;;;;5069026;28;20194;-64
2021/01/04 07:33:07;;;;;;;3.20;3.00;;;;;;;;;;5069006;28;20669;-64
2021/01/04 07:35:46;;;;;;;2.97;2.78;;;;;;;;;;5069857;28;20665;-65
2021/01/04 07:38:31;;;;;;;3.92;3.78;;;;;;;;;;5072738;28;20174;-64
2021/01/04 07:41:07;;;;;;;3.08;2.90;;;;;;;;;;5074578;28;20277;-64
2021/01/04 07:43:45;;;;;;;3.90;3.22;;;;;;;;;;5074542;28;20204;-65
2021/01/04 07:46:29;;;;;;;5.05;4.30;;;;;;;;;;5074587;28;20207;-64
2021/01/04 07:49:17;;;;;;;2.60;2.50;;;;;;;;;;5074447;28;20237;-64
2021/01/04 07:51:43;;;;;;;2.35;2.22;;;;;;;;;;5074444;28;20191;-64
2021/01/04 07:54:12;;;;;;;3.33;3.13;;;;;;;;;;5074594;28;20168;-64
2021/01/04 07:57:04;;;;;;;4.00;3.70;;;;;;;;;;5074686;28;20441;-64
2021/01/04 07:59:30;;;;;;;4.55;4.15;;;;;;;;;;5074397;28;20180;-65
2021/01/04 08:02:02;;;;;;;6.20;5.73;;;;;;;;;;5074433;28;20252;-64
2021/01/04 08:04:38;;;;;;;3.45;3.25;;;;;;;;;;5074422;28;20497;-64
2021/01/04 08:07:19;;;;;;;2.17;2.08;;;;;;;;;;5074352;28;20177;-64
2021/01/04 08:09:54;;;;;;;2.85;1.98;;;;;;;;;;5073665;28;20241;-64
2021/01/04 08:12:43;;;;;;;8.05;4.68;;;;;;;;;;5074049;28;20191;-64
2021/01/04 08:15:28;;;;;;;3.47;3.20;;;;;;;;;;5074140;28;20175;-64
2021/01/04 08:18:01;;;;;;;2.97;2.85;;;;;;;;;;5074006;28;20175;-64
2021/01/04 08:20:28;;;;;;;5.32;4.93;;;;;;;;;;5073599;28;20213;-64
2021/01/04 08:23:05;;;;;;;3.25;3.05;;;;;;;;;;5073981;28;20218;-64
2021/01/04 08:25:31;;;;;;;4.45;4.15;;;;;;;;;;5073859;28;20206;-64
2021/01/04 08:28:04;;;;;;;3.95;3.15;;;;;;;;;;5071845;28;20602;-64
2021/01/04 08:30:33;;;;;;;4.78;4.47;;;;;;;;;;5073295;28;20195;-64
2021/01/04 08:33:05;;;;;;;5.22;4.75;;;;;;;;;;5073685;28;20179;-65
2021/01/04 08:35:33;;;;;;;6.20;5.78;;;;;;;;;;5073221;28;20692;-64
2021/01/04 08:38:12;;;;;;;2.95;2.85;;;;;;;;;;5072766;28;20520;-65
2021/01/04 08:40:38;;;;;;;2.20;2.10;;;;;;;;;;5073128;28;20186;-65
2021/01/04 08:43:08;;;;;;;3.38;3.17;;;;;;;;;;5073376;28;20186;-65
2021/01/04 08:45:37;;;;;;;4.82;4.43;;;;;;;;;;5073325;28;20179;-64
2021/01/04 08:48:14;;;;;;;3.03;2.83;;;;;;;;;;5072567;28;20191;-64
2021/01/04 08:50:44;;;;;;;3.00;2.88;;;;;;;;;;5072674;28;20280;-64
2021/01/04 08:53:12;;;;;;;6.65;6.07;;;;;;;;;;5073535;28;20657;-64
2021/01/04 08:55:39;;;;;;;10.50;6.00;;;;;;;;;;5073331;28;20248;-64
2021/01/04 08:58:17;;;;;;;4.13;3.70;;;;;;;;;;5071615;28;20232;-63
2021/01/04 09:00:44;;;;;;;7.90;5.15;;;;;;;;;;5072191;28;20219;-63
2021/01/04 09:03:20;;;;;;;4.65;4.45;;;;;;;;;;5073217;28;20224;-63
2021/01/04 09:05:47;;;;;;;3.90;3.00;;;;;;;;;;5072890;28;20182;-63
2021/01/04 09:08:15;;;;;;;2.50;2.40;;;;;;;;;;5072551;28;20199;-64
2021/01/04 09:10:44;;;;;;;5.88;5.47;;;;;;;;;;5070468;28;20590;-63
2021/01/04 09:13:22;;;;;;;3.60;3.40;;;;;;;;;;5072792;28;20547;-63
2021/01/04 09:15:49;;;;;;;3.00;2.80;;;;;;;;;;5073133;28;20313;-63
2021/01/04 09:18:30;;;;;;;3.53;3.30;;;;;;;;;;5072318;28;20886;-63
2021/01/04 09:21:01;;;;;;;3.83;3.47;;;;;;;;;;5071847;28;20264;-63
2021/01/04 09:23:30;;;;;;;2.33;2.22;;;;;;;;;;5072157;28;20601;-63
2021/01/04 09:26:04;;;;;;;9.32;4.82;;;;;;;;;;5072120;28;20171;-64
2021/01/04 09:28:35;;;;;;;2.95;2.72;;;;;;;;;;5072076;28;20574;-63
2021/01/04 09:31:01;;;;;;;3.45;3.35;;;;;;;;;;5072023;28;20218;-63
2021/01/04 09:33:27;;;;;;;5.65;5.13;;;;;;;;;;5071726;28;20562;-63
2021/01/04 09:36:02;;;;;;;3.73;3.43;;;;;;;;;;5072133;28;20210;-63
2021/01/04 09:38:27;;;;;;;4.57;4.18;;;;;;;;;;5071618;28;20437;-63
2021/01/04 09:40:55;;;;;;;2.47;2.35;;;;;;;;;;5071674;28;20654;-63
2021/01/04 09:43:26;;;;;;;4.35;4.13;;;;;;;;;;5071608;28;20172;-63
2021/01/04 09:45:53;;;;;;;2.83;2.65;;;;;;;;;;5070444;28;20228;-63
2021/01/04 09:48:30;;;;;;;6.00;5.07;;;;;;;;;;5071719;28;20194;-63
2021/01/04 09:51:00;;;;;;;3.03;2.92;;;;;;;;;;5071607;28;20225;-63
2021/01/04 09:53:36;;;;;;;5.22;4.97;;;;;;;;;;5071896;28;20174;-64
2021/01/04 09:56:06;;;;;;;8.43;5.68;;;;;;;;;;5071656;28;20190;-64
2021/01/04 09:58:33;;;;;;;3.42;3.22;;;;;;;;;;5072260;28;20171;-63
2021/01/04 10:01:03;;;;;;;4.55;3.63;;;;;;;;;;5070777;28;20205;-64
2021/01/04 10:03:29;;;;;;;1.70;1.65;;;;;;;;;;5071523;28;20557;-63
2021/01/04 10:05:56;;;;;;;4.32;2.92;;;;;;;;;;5070940;28;20267;-63
2021/01/04 10:08:23;;;;;;;5.57;5.18;;;;;;;;;;5071346;28;20287;-63
2021/01/04 10:10:56;;;;;;;2.03;1.92;;;;;;;;;;5069963;28;20230;-63
2021/01/04 10:13:23;;;;;;;4.20;4.00;;;;;;;;;;5071422;28;20293;-63
2021/01/04 10:15:50;;;;;;;2.75;2.65;;;;;;;;;;5071243;28;20509;-63
2021/01/04 10:18:23;;;;;;;4.75;4.32;;;;;;;;;;5071228;28;20183;-63
2021/01/04 10:20:51;;;;;;;5.22;4.82;;;;;;;;;;5071246;28;20204;-64
2021/01/04 10:23:23;;;;;;;2.92;2.80;;;;;;;;;;5071718;28;20175;-63
2021/01/04 10:25:53;;;;;;;2.58;2.47;;;;;;;;;;5071566;28;20179;-63
2021/01/04 10:28:19;;;;;;;3.10;2.90;;;;;;;;;;5070807;28;20274;-63
2021/01/04 10:30:45;;;;;;;7.60;4.28;;;;;;;;;;5071376;28;20187;-63
2021/01/04 10:33:21;;;;;;;2.22;1.85;;;;;;;;;;5071649;28;20175;-64
2021/01/04 10:35:48;;;;;;;5.00;4.55;;;;;;;;;;5071287;28;20177;-63
2021/01/04 10:38:18;;;;;;;4.55;4.30;;;;;;;;;;5071554;28;20176;-63
2021/01/04 10:40:46;;;;;;;3.67;3.38;;;;;;;;;;5070350;28;20187;-61
2021/01/04 10:43:16;;;;;;;6.13;2.85;;;;;;;;;;5070325;28;20173;-63
2021/01/04 10:45:42;;;;;;;1.92;1.83;;;;;;;;;;5071152;28;20210;-63
2021/01/04 10:48:14;;;;;;;4.57;3.83;;;;;;;;;;5070799;28;20683;-64
2021/01/04 10:50:45;;;;;;;3.05;2.95;;;;;;;;;;5070050;28;20198;-63
2021/01/04 10:53:31;;;;;;;2.53;2.42;;;;;;;;;;5071396;28;20293;-64
2021/01/04 10:56:09;;;;;;;7.13;4.05;;;;;;;;;;5060484;28;20179;-63
2021/01/04 10:58:40;;;;;;;3.95;3.67;;;;;;;;;;5070989;28;20223;-63
2021/01/04 11:01:30;;;;;;;6.45;6.00;;;;;;;;;;5070741;28;20188;-63
2021/01/04 11:03:56;;;;;;;2.35;2.20;;;;;;;;;;5070456;28;20222;-63
2021/01/04 11:06:24;;;;;;;2.77;2.23;;;;;;;;;;5070704;28;20175;-63
2021/01/04 11:08:50;;;;;;;3.00;2.75;;;;;;;;;;5070559;28;20817;-64
2021/01/04 11:11:31;;;;;;;3.05;2.95;;;;;;;;;;5071234;28;20191;-63
2021/01/04 11:14:14;;;;;;;2.25;2.15;;;;;;;;;;5074284;28;20297;-63
2021/01/04 11:17:03;;;;;;;7.53;6.80;;;;;;;;;;5074357;28;20167;-62
2021/01/04 11:19:31;;;;;;;5.43;2.90;;;;;;;;;;5074091;28;20551;-63
2021/01/04 11:22:07;;;;;;;4.43;4.03;;;;;;;;;;5074155;28;20207;-63
2021/01/04 11:24:33;;;;;;;4.00;3.75;;;;;;;;;;5069381;28;20691;-63
2021/01/04 11:26:59;;;;;;;3.93;3.50;;;;;;;;;;5074443;28;20206;-63
2021/01/04 11:29:25;;;;;;;6.23;3.37;;;;;;;;;;5073781;28;20862;-63
2021/01/04 11:31:51;;;;;;;3.70;3.50;;;;;;;;;;5074349;28;20421;-64
2021/01/04 11:34:17;;;;;;;2.67;2.58;;;;;;;;;;5074381;28;20415;-63
2021/01/04 11:36:43;;;;;;;3.80;3.60;;;;;;;;;;5073612;28;20240;-64
2021/01/04 11:39:09;;;;;;;3.13;2.83;;;;;;;;;;5074206;28;20410;-63
2021/01/04 11:41:35;;;;;;;3.22;2.85;;;;;;;;;;5074060;28;20418;-63
2021/01/04 11:44:01;;;;;;;2.78;2.60;;;;;;;;;;5074244;28;20171;-63
2021/01/04 11:46:27;;;;;;;5.50;3.65;;;;;;;;;;5073753;28;20172;-64
2021/01/04 11:48:53;;;;;;;2.47;2.37;;;;;;;;;;5073693;28;20210;-63
2021/01/04 11:51:20;;;;;;;2.85;2.67;;;;;;;;;;5073944;28;20597;-63
2021/01/04 11:53:50;;;;;;;6.57;4.95;;;;;;;;;;5073441;28;20254;-63
2021/01/04 11:56:16;;;;;;;3.75;3.45;;;;;;;;;;5073718;28;20255;-63
2021/01/04 11:58:43;;;;;;;2.05;1.98;;;;;;;;;;5073041;28;20203;-63
2021/01/04 12:01:09;;;;;;;2.15;2.03;;;;;;;;;;5073552;28;20195;-63
2021/01/04 12:03:35;;;;;;;2.80;2.70;;;;;;;;;;5073511;28;20240;-63
2021/01/04 12:06:01;;;;;;;4.30;3.03;;;;;;;;;;5073165;28;20258;-63
2021/01/04 12:08:27;;;;;;;5.32;2.83;;;;;;;;;;5073051;28;20291;-63
2021/01/04 12:10:53;;;;;;;5.50;1.83;;;;;;;;;;5073012;28;20213;-63
2021/01/04 12:13:19;;;;;;;3.95;3.60;;;;;;;;;;5073552;28;20168;-64
2021/01/04 12:15:45;;;;;;;2.72;2.53;;;;;;;;;;5073368;28;20175;-64
2021/01/04 12:18:11;;;;;;;2.10;1.60;;;;;;;;;;5072925;28;20600;-64
2021/01/04 12:20:37;;;;;;;3.20;2.10;;;;;;;;;;5072139;28;20430;-64
2021/01/04 12:23:03;;;;;;;1.90;1.80;;;;;;;;;;5072797;28;20175;-64
2021/01/04 12:25:29;;;;;;;2.05;1.95;;;;;;;;;;5073167;28;20258;-64
2021/01/04 12:27:55;;;;;;;2.42;1.73;;;;;;;;;;5072953;28;20222;-64
2021/01/04 12:30:21;;;;;;;1.48;1.48;;;;;;;;;;5072491;28;20221;-64
2021/01/04 12:32:47;;;;;;;3.15;2.97;;;;;;;;;;5072404;28;20168;-64
2021/01/04 12:35:13;;;;;;;2.47;2.28;;;;;;;;;;5071932;28;20779;-64
2021/01/04 12:37:39;;;;;;;1.45;1.23;;;;;;;;;;5073233;28;20176;-64
2021/01/04 12:40:10;;;;;;;7.50;2.00;;;;;;;;;;5072789;28;20539;-65
2021/01/04 12:42:36;;;;;;;2.03;1.92;;;;;;;;;;5072137;28;20217;-64
2021/01/04 12:45:03;;;;;;;2.42;2.20;;;;;;;;;;5072796;28;20190;-64
2021/01/04 12:47:29;;;;;;;2.95;2.85;;;;;;;;;;5072814;28;20520;-64
2021/01/04 12:49:55;;;;;;;1.42;1.33;;;;;;;;;;5072412;28;20317;-65
2021/01/04 12:52:21;;;;;;;2.67;2.47;;;;;;;;;;5072621;28;20227;-64
2021/01/04 12:54:47;;;;;;;1.30;1.30;;;;;;;;;;5071882;28;20409;-64
2021/01/04 12:57:13;;;;;;;1.63;1.53;;;;;;;;;;5072657;28;20770;-65
2021/01/04 12:59:41;;;;;;;3.03;2.72;;;;;;;;;;5072207;28;20786;-64
2021/01/04 13:02:07;;;;;;;2.78;2.67;;;;;;;;;;5072159;28;20246;-65
2021/01/04 13:04:35;;;;;;;2.05;2.03;;;;;;;;;;5071946;28;20178;-64
2021/01/04 13:07:01;;;;;;;1.85;1.75;;;;;;;;;;5072043;28;20229;-64
2021/01/04 13:09:27;;;;;;;1.27;1.27;;;;;;;;;;5072117;28;20199;-65
2021/01/04 13:11:54;;;;;;;2.42;2.22;;;;;;;;;;5072086;28;20415;-64
2021/01/04 13:14:21;;;;;;;1.13;1.13;;;;;;;;;;5072266;28;20175;-64
2021/01/04 13:16:47;;;;;;;1.27;1.20;;;;;;;;;;5071478;28;20596;-64
2021/01/04 13:19:13;;;;;;;5.32;4.95;;;;;;;;;;5071597;28;20171;-64
2021/01/04 13:21:40;;;;;;;3.42;2.25;;;;;;;;;;5090152;22;20273;-63
2021/01/04 13:24:07;;;;;;;4.00;3.53;;;;;;;;;;5071569;28;20229;-63
2021/01/04 13:26:42;;;;;;;3.35;3.20;;;;;;;;;;5071421;28;20198;-63
2021/01/04 13:29:09;;;;;;;8.25;3.03;;;;;;;;;;5071180;28;20534;-63
2021/01/04 13:31:36;;;;;;;3.17;2.97;;;;;;;;;;5063733;28;20573;-63
2021/01/04 13:34:02;;;;;;;3.28;3.13;;;;;;;;;;5051058;28;20242;-63
2021/01/04 13:36:28;;;;;;;2.92;2.45;;;;;;;;;;5051796;28;20172;-63
2021/01/04 13:38:55;;;;;;;2.40;2.28;;;;;;;;;;5050982;28;20180;-63
2021/01/04 13:41:20;;;;;;;1.92;1.92;;;;;;;;;;5051696;28;20195;-63
2021/01/04 13:43:47;;;;;;;2.80;2.53;;;;;;;;;;5051442;28;20187;-63
2021/01/04 13:46:19;;;;;;;2.97;2.88;;;;;;;;;;5051522;28;20419;-63
2021/01/04 13:48:45;;;;;;;2.00;1.90;;;;;;;;;;5051083;28;20300;-63
2021/01/04 13:51:11;;;;;;;2.35;2.15;;;;;;;;;;5050947;28;20277;-63
2021/01/04 13:53:37;;;;;;;2.83;2.17;;;;;;;;;;5051407;28;20707;-63
2021/01/04 13:56:03;;;;;;;2.65;2.55;;;;;;;;;;5051272;28;20440;-64
2021/01/04 13:58:29;;;;;;;2.65;2.45;;;;;;;;;;5051327;28;20678;-64
2021/01/04 14:00:55;;;;;;;1.90;1.80;;;;;;;;;;5050508;28;20231;-64
2021/01/04 14:03:21;;;;;;;2.60;2.20;;;;;;;;;;5051302;28;20199;-65
2021/01/04 14:05:47;;;;;;;3.27;3.17;;;;;;;;;;5051093;28;20407;-64
2021/01/04 14:08:13;;;;;;;1.52;1.50;;;;;;;;;;5050991;28;20461;-64
2021/01/04 14:10:39;;;;;;;1.02;1.02;;;;;;;;;;5050798;28;20176;-64
2021/01/04 14:13:05;;;;;;;2.65;2.50;;;;;;;;;;5038393;28;20628;-65
2021/01/04 14:15:31;;;;;;;1.97;1.87;;;;;;;;;;5031287;28;20223;-64
2021/01/04 14:17:57;;;;;;;2.53;2.40;;;;;;;;;;5031005;28;20427;-65
2021/01/04 14:20:23;;;;;;;2.13;2.03;;;;;;;;;;5029450;28;20418;-65
2021/01/04 14:22:49;;;;;;;1.65;1.50;;;;;;;;;;5030578;28;20462;-65
2021/01/04 14:25:15;;;;;;;1.90;1.83;;;;;;;;;;5031097;28;20173;-64
2021/01/04 14:27:41;;;;;;;3.17;2.97;;;;;;;;;;5030880;28;20173;-65
2021/01/04 14:30:07;;;;;;;2.03;1.83;;;;;;;;;;5030844;28;20222;-65
2021/01/04 14:32:34;;;;;;;2.78;1.90;;;;;;;;;;5030780;28;20189;-64
2021/01/04 14:35:00;;;;;;;4.50;2.47;;;;;;;;;;5030389;28;20172;-65
2021/01/04 14:37:26;;;;;;;3.63;3.30;;;;;;;;;;5030910;28;20222;-65
2021/01/04 14:39:52;;;;;;;3.30;2.70;;;;;;;;;;5030622;28;20173;-64
2021/01/04 14:42:19;;;;;;;2.58;2.13;;;;;;;;;;5030718;28;20709;-64
2021/01/04 14:44:45;;;;;;;1.33;1.33;;;;;;;;;;5030346;28;20172;-65
2021/01/04 14:47:11;;;;;;;2.33;2.20;;;;;;;;;;5034198;28;20606;-65
2021/01/04 14:49:38;;;;;;;2.58;2.45;;;;;;;;;;5034698;28;20207;-64
2021/01/04 14:52:04;;;;;;;1.50;1.50;;;;;;;;;;5034752;28;20203;-64
2021/01/04 14:54:30;;;;;;;3.97;3.72;;;;;;;;;;5034768;28;20211;-65
2021/01/04 14:56:56;;;;;;;4.43;2.58;;;;;;;;;;5033977;28;20219;-64
2021/01/04 14:59:23;;;;;;;3.20;3.08;;;;;;;;;;5034481;28;20521;-65
2021/01/04 15:01:49;;;;;;;3.30;2.95;;;;;;;;;;5034659;28;20327;-65
2021/01/04 15:04:17;;;;;;;2.17;2.07;;;;;;;;;;5034763;28;20256;-65
2021/01/04 15:06:43;;;;;;;2.28;2.17;;;;;;;;;;5034499;28;20531;-65